Time;durP1;ratioP1;P1;durP2;ratioP2;P2;SDS_P1;SDS_P2;PMS_P1;PMS_P2;Temp;Humidity;BMP_temperature;BMP_pressure;BME280_temperature;BME280_humidity;BME280_pressure;Samples;Min_cycle;Max_cycle;Signal;HPM_P1;HPM_P2
2021/09/08 00:01:54;;;;;;;13.90;8.65;;;;;;;15.89;80.42;98554.09;5032096;28;20122;-82
2021/09/08 00:04:19;;;;;;;15.45;9.05;;;;;;;15.80;80.67;98558.75;5031646;28;20016;-81
2021/09/08 00:06:45;;;;;;;13.18;8.00;;;;;;;15.66;81.59;98554.44;5030860;28;20555;-81
2021/09/08 00:09:11;;;;;;;12.07;9.05;;;;;;;15.57;82.10;98545.28;5030026;28;20072;-83
2021/09/08 00:11:36;;;;;;;13.73;8.63;;;;;;;15.47;82.99;98546.31;5030773;28;20029;-83
2021/09/08 00:14:02;;;;;;;10.05;8.30;;;;;;;15.48;83.36;98547.97;5029411;28;20049;-80
2021/09/08 00:16:27;;;;;;;14.88;8.45;;;;;;;15.59;82.29;98530.06;5031367;28;20022;-82
2021/09/08 00:18:55;;;;;;;15.50;8.95;;;;;;;15.56;82.48;98550.00;5031315;28;20087;-81
2021/09/08 00:21:21;;;;;;;13.48;9.88;;;;;;;15.70;81.97;98549.91;5031310;28;20069;-80
2021/09/08 00:23:46;;;;;;;13.35;8.57;;;;;;;15.76;81.57;98546.72;5034331;28;20013;-83
2021/09/08 00:26:11;;;;;;;13.95;8.82;;;;;;;15.86;81.10;98540.94;5033074;28;20033;-82
2021/09/08 00:28:37;;;;;;;11.32;8.32;;;;;;;15.71;81.80;98549.59;5030987;28;20017;-84
2021/09/08 00:31:02;;;;;;;14.73;8.15;;;;;;;15.48;82.26;98531.41;5030907;28;20500;-80
2021/09/08 00:33:28;;;;;;;12.52;7.85;;;;;;;15.39;83.59;98547.06;5031108;28;20022;-82
2021/09/08 00:35:53;;;;;;;9.80;6.90;;;;;;;15.30;84.58;98552.50;5030963;28;20439;-83
2021/09/08 00:38:19;;;;;;;11.65;8.02;;;;;;;15.28;85.03;98542.91;5030068;28;20084;-80
2021/09/08 00:40:44;;;;;;;10.60;7.82;;;;;;;15.23;85.46;98543.84;5029172;28;20033;-83
2021/09/08 00:43:10;;;;;;;13.25;8.30;;;;;;;15.22;85.17;98528.44;5028625;28;20089;-82
2021/09/08 00:45:35;;;;;;;20.30;8.90;;;;;;;15.27;85.08;98539.34;5029887;28;20092;-80
2021/09/08 00:48:01;;;;;;;13.02;8.18;;;;;;;15.16;85.88;98534.38;5030297;28;20490;-81
2021/09/08 00:50:27;;;;;;;14.00;8.27;;;;;;;15.33;84.93;98535.34;5030603;28;20033;-81
2021/09/08 00:52:52;;;;;;;10.25;8.65;;;;;;;15.21;85.76;98542.53;5036454;28;20481;-82
2021/09/08 00:55:21;;;;;;;13.88;9.63;;;;;;;15.13;85.99;98535.78;5044742;28;20036;-81
2021/09/08 00:57:49;;;;;;;20.70;9.27;;;;;;;15.17;85.71;98534.06;5028479;28;20051;-81
2021/09/08 01:00:15;;;;;;;16.33;8.10;;;;;;;15.33;84.76;98534.50;5034352;28;20120;-83
2021/09/08 01:02:40;;;;;;;14.15;8.32;;;;;;;15.45;83.77;98534.78;5034738;28;20522;-83
2021/09/08 01:05:08;;;;;;;12.93;9.07;;;;;;;15.41;83.51;98536.53;5033270;28;20036;-83
2021/09/08 01:07:33;;;;;;;15.40;7.68;;;;;;;15.33;83.39;98523.50;5034071;28;20043;-81
2021/09/08 01:09:59;;;;;;;12.13;7.88;;;;;;;15.29;84.00;98528.00;5034322;28;20026;-85
2021/09/08 01:12:24;;;;;;;16.65;9.07;;;;;;;14.99;85.46;98519.31;5034377;28;20010;-82
2021/09/08 01:14:50;;;;;;;16.17;9.52;;;;;;;15.01;86.40;98533.59;5034091;28;20025;-80
2021/09/08 01:17:18;;;;;;;14.20;9.43;;;;;;;14.93;86.66;98531.59;5034692;28;20021;-80
2021/09/08 01:19:44;;;;;;;12.00;8.82;;;;;;;14.81;87.15;98524.97;5031669;28;20014;-82
2021/09/08 01:22:11;;;;;;;10.77;8.70;;;;;;;14.76;87.67;98531.41;5033055;28;20018;-82
2021/09/08 01:24:40;;;;;;;11.27;7.85;;;;;;;14.88;87.22;98528.09;5034065;28;20021;-82
2021/09/08 01:27:05;;;;;;;14.98;9.05;;;;;;;14.74;87.43;98522.63;5033953;28;20036;-82
2021/09/08 01:29:31;;;;;;;12.68;7.82;;;;;;;14.99;86.37;98527.59;5033282;28;20034;-80
2021/09/08 01:31:58;;;;;;;10.60;7.53;;;;;;;15.10;85.70;98528.16;5033214;28;20016;-83
2021/09/08 01:34:24;;;;;;;10.70;7.72;;;;;;;14.88;86.09;98517.09;5034496;28;20123;-80
2021/09/08 01:36:51;;;;;;;17.65;7.10;;;;;;;14.95;86.37;98520.25;5034716;28;20028;-80
2021/09/08 01:39:18;;;;;;;11.10;8.20;;;;;;;15.01;85.86;98519.00;5034542;28;20116;-81
2021/09/08 01:41:44;;;;;;;11.23;7.72;;;;;;;15.16;84.86;98526.13;5034169;28;20044;-81
2021/09/08 01:44:09;;;;;;;11.00;7.30;;;;;;;14.83;86.38;98520.78;5032032;28;20017;-83
2021/09/08 01:46:35;;;;;;;12.80;8.23;;;;;;;14.77;86.60;98515.69;5034171;28;20069;-84
2021/09/08 01:49:00;;;;;;;13.82;7.63;;;;;;;14.94;85.95;98521.38;5033798;28;20135;-81
2021/09/08 01:51:26;;;;;;;12.88;7.10;;;;;;;14.95;85.69;98526.56;5033508;28;20030;-83
2021/09/08 01:53:51;;;;;;;10.82;7.78;;;;;;;14.75;86.68;98517.94;5032281;28;20478;-82
2021/09/08 01:56:17;;;;;;;9.73;7.72;;;;;;;14.62;87.61;98516.84;5031781;28;20032;-81
2021/09/08 01:58:43;;;;;;;12.95;7.45;;;;;;;14.49;88.86;98514.91;5033403;28;20033;-81
2021/09/08 02:01:08;;;;;;;13.57;8.45;;;;;;;14.45;89.22;98513.88;5033462;28;20087;-80
2021/09/08 02:03:34;;;;;;;11.52;8.50;;;;;;;14.36;89.95;98516.53;5033739;28;20033;-80
2021/09/08 02:05:59;;;;;;;10.80;8.40;;;;;;;14.35;90.19;98511.34;5032224;28;20029;-83
2021/09/08 02:08:25;;;;;;;11.23;7.90;;;;;;;14.36;89.54;98501.97;5034822;28;20434;-81
2021/09/08 02:10:51;;;;;;;8.32;7.43;;;;;;;14.45;89.70;98502.88;5033023;28;20033;-79
2021/09/08 02:13:17;;;;;;;14.10;8.80;;;;;;;14.58;88.16;98491.03;5036286;28;20027;-83
2021/09/08 02:15:42;;;;;;;11.50;8.63;;;;;;;14.68;88.26;98512.03;5047815;28;20097;-81
2021/09/08 02:18:08;;;;;;;12.20;8.38;;;;;;;14.61;88.61;98523.47;5048288;28;20064;-81
2021/09/08 02:20:34;;;;;;;14.85;8.68;;;;;;;14.53;88.84;98512.34;5047952;28;20045;-83
2021/09/08 02:22:59;;;;;;;12.77;8.80;;;;;;;14.37;89.77;98509.09;5039035;28;20014;-82
2021/09/08 02:25:24;;;;;;;9.32;7.65;;;;;;;14.41;90.06;98513.69;5035778;28;20025;-82
2021/09/08 02:27:50;;;;;;;11.43;7.35;;;;;;;14.42;90.08;98525.50;5034493;28;20029;-83
2021/09/08 02:30:16;;;;;;;11.90;8.88;;;;;;;14.32;90.25;98520.16;5033228;28;20531;-82
2021/09/08 02:32:41;;;;;;;17.08;8.90;;;;;;;14.24;90.18;98510.72;5049541;28;20390;-81
2021/09/08 02:35:07;;;;;;;11.60;7.13;;;;;;;14.42;89.98;98525.50;5033205;28;20020;-82
2021/09/08 02:37:33;;;;;;;12.60;8.73;;;;;;;14.30;90.54;98527.94;5032711;28;20033;-80
2021/09/08 02:39:58;;;;;;;10.35;8.05;;;;;;;14.13;91.13;98517.50;5033114;28;20013;-82
2021/09/08 02:42:24;;;;;;;13.55;8.15;;;;;;;14.00;92.32;98514.75;5033447;28;20045;-82
2021/09/08 02:44:49;;;;;;;13.40;8.65;;;;;;;13.81;94.15;98526.63;5009596;28;20030;-84
2021/09/08 02:47:16;;;;;;;14.00;9.02;;;;;;;13.80;94.20;98519.50;5021639;28;20394;-81
2021/09/08 02:49:41;;;;;;;9.98;7.88;;;;;;;13.94;93.19;98509.34;5015068;28;20034;-81
2021/09/08 02:52:07;;;;;;;11.60;8.50;;;;;;;13.78;94.53;98521.72;5012870;28;20026;-80
2021/09/08 02:54:32;;;;;;;12.30;8.40;;;;;;;13.64;95.26;98509.91;5012479;28;20029;-80
2021/09/08 02:56:58;;;;;;;12.52;8.40;;;;;;;13.64;95.66;98520.88;5012511;28;20026;-81
2021/09/08 02:59:23;;;;;;;15.38;8.57;;;;;;;13.55;96.12;98514.44;5013140;28;20030;-83
2021/09/08 03:01:48;;;;;;;16.40;8.77;;;;;;;13.51;96.93;98516.16;5013859;28;20033;-83
2021/09/08 03:04:14;;;;;;;10.98;8.68;;;;;;;13.50;97.10;98520.00;5011424;28;20033;-83
2021/09/08 03:06:39;;;;;;;11.98;8.45;;;;;;;13.50;97.02;98525.50;5012946;28;20486;-83
2021/09/08 03:09:05;;;;;;;15.00;8.85;;;;;;;13.53;97.42;98524.13;5015239;28;20026;-81
2021/09/08 03:11:30;;;;;;;13.65;8.98;;;;;;;13.52;97.02;98517.81;5031623;28;20053;-81
2021/09/08 03:13:56;;;;;;;11.50;8.75;;;;;;;13.44;97.77;98518.47;5013080;28;20025;-85
2021/09/08 03:16:21;;;;;;;12.45;9.05;;;;;;;13.64;96.34;98509.91;5012962;28;20022;-83
2021/09/08 03:18:47;;;;;;;11.23;9.88;;;;;;;13.72;96.28;98522.16;5013224;28;20072;-80
2021/09/08 03:21:12;;;;;;;10.75;9.43;;;;;;;13.70;95.67;98519.69;5022066;28;20017;-81
2021/09/08 03:23:41;;;;;;;12.93;7.78;;;;;;;13.62;96.69;98519.56;5022164;28;20189;-84
2021/09/08 03:26:07;;;;;;;19.98;9.00;;;;;;;13.70;96.04;98519.69;4998851;28;20036;-81
2021/09/08 03:28:32;;;;;;;12.13;9.48;;;;;;;13.74;96.00;98514.41;5013498;28;20025;-84
2021/09/08 03:30:57;;;;;;;10.75;8.65;;;;;;;13.57;96.44;98503.97;5013871;28;20060;-82
2021/09/08 03:33:23;;;;;;;15.40;8.85;;;;;;;13.35;98.01;98503.78;5014217;28;20033;-81
2021/09/08 03:35:48;;;;;;;11.40;9.00;;;;;;;13.45;97.30;98514.63;5014066;28;20437;-82
2021/09/08 03:38:14;;;;;;;10.38;8.48;;;;;;;13.67;95.87;98516.72;5019962;28;20057;-82
2021/09/08 03:40:40;;;;;;;12.27;8.00;;;;;;;13.69;95.60;98512.53;5022266;28;20034;-80
2021/09/08 03:43:08;;;;;;;15.00;9.38;;;;;;;13.60;96.46;98516.28;5021228;28;20054;-83
2021/09/08 03:45:34;;;;;;;11.75;8.70;;;;;;;13.70;95.36;98518.88;5032034;28;20052;-83
2021/09/08 03:47:59;;;;;;;11.20;8.90;;;;;;;13.53;95.93;98518.63;5032031;28;20530;-82
2021/09/08 03:50:25;;;;;;;14.25;10.20;;;;;;;13.28;97.77;98519.84;5029895;28;20154;-81
2021/09/08 03:52:51;;;;;;;20.55;9.30;;;;;;;13.31;98.28;98516.50;5031993;28;20025;-82
2021/09/08 03:55:16;;;;;;;12.30;9.30;;;;;;;13.17;98.83;98519.19;5032019;28;20532;-83
2021/09/08 03:57:42;;;;;;;16.73;9.70;;;;;;;12.91;100.00;98512.41;5027813;28;20052;-82
2021/09/08 04:00:10;;;;;;;15.63;10.30;;;;;;;12.84;100.00;98526.50;5031128;28;20104;-84
2021/09/08 04:02:36;;;;;;;17.73;11.93;;;;;;;12.88;100.00;98521.22;5029812;28;20482;-83
2021/09/08 04:05:02;;;;;;;16.10;10.48;;;;;;;12.70;100.00;98522.84;5031139;28;20408;-84
2021/09/08 04:07:27;;;;;;;17.60;10.50;;;;;;;12.79;100.00;98532.06;5029394;28;20037;-81
2021/09/08 04:09:53;;;;;;;16.05;10.43;;;;;;;12.82;100.00;98525.16;5031897;28;20029;-82
2021/09/08 04:12:19;;;;;;;13.95;10.35;;;;;;;12.90;100.00;98530.78;5032322;28;20033;-83
2021/09/08 04:14:45;;;;;;;15.73;10.60;;;;;;;12.81;100.00;98537.28;5037222;28;20450;-81
2021/09/08 04:17:11;;;;;;;14.20;9.77;;;;;;;12.86;100.00;98532.53;5031889;28;20033;-81
2021/09/08 04:19:36;;;;;;;17.83;9.75;;;;;;;12.96;100.00;98525.25;5031400;28;20025;-82
2021/09/08 04:22:02;;;;;;;16.17;10.32;;;;;;;12.96;100.00;98520.59;5030520;28;20025;-82
2021/09/08 04:24:27;;;;;;;16.77;12.57;;;;;;;13.11;100.00;98538.78;5029807;28;20028;-79
2021/09/08 04:26:53;;;;;;;15.38;10.55;;;;;;;13.03;100.00;98531.19;5030768;28;20005;-81
2021/09/08 04:29:18;;;;;;;18.30;10.43;;;;;;;13.04;100.00;98532.81;5029169;28;20529;-81
2021/09/08 04:31:43;;;;;;;14.35;10.85;;;;;;;13.11;100.00;98539.59;5029505;28;20076;-81
2021/09/08 04:34:09;;;;;;;20.85;10.52;;;;;;;13.16;100.00;98530.47;5029885;28;20021;-83
2021/09/08 04:36:35;;;;;;;17.58;10.88;;;;;;;13.08;100.00;98537.47;5031385;28;20025;-82
2021/09/08 04:39:01;;;;;;;18.02;10.20;;;;;;;12.78;100.00;98533.16;5030737;28;20030;-81
2021/09/08 04:41:27;;;;;;;19.33;10.63;;;;;;;12.81;100.00;98535.31;5031315;28;20053;-86
2021/09/08 04:43:52;;;;;;;26.00;10.38;;;;;;;13.11;100.00;98538.78;5030570;28;20112;-76
2021/09/08 04:46:18;;;;;;;17.75;10.00;;;;;;;13.11;100.00;98544.28;5028392;28;20076;-75
2021/09/08 04:48:43;;;;;;;13.15;9.90;;;;;;;13.27;99.76;98545.69;5029492;28;20036;-75
2021/09/08 04:51:08;;;;;;;17.38;10.32;;;;;;;13.15;100.00;98537.09;5029590;28;20033;-78
2021/09/08 04:53:34;;;;;;;20.38;10.40;;;;;;;13.22;100.00;98529.25;5028114;28;20029;-77
2021/09/08 04:55:59;;;;;;;16.90;10.45;;;;;;;13.52;97.53;98544.47;5035277;28;20109;-79
2021/09/08 04:58:25;;;;;;;14.50;9.55;;;;;;;13.46;97.39;98549.25;5027601;28;20091;-77
2021/09/08 05:00:51;;;;;;;17.92;10.38;;;;;;;13.46;97.02;98552.00;5028319;28;20040;-77
2021/09/08 05:03:17;;;;;;;17.90;10.30;;;;;;;13.42;97.04;98550.94;5027821;28;20595;-77
2021/09/08 05:05:45;;;;;;;14.65;9.93;;;;;;;13.51;96.83;98554.66;5028216;28;20026;-77
2021/09/08 05:08:14;;;;;;;15.25;9.73;;;;;;;13.64;95.59;98556.63;5029506;28;20029;-74
2021/09/08 05:10:42;;;;;;;14.18;10.00;;;;;;;13.82;95.29;98550.25;5026804;28;20074;-74
2021/09/08 05:13:09;;;;;;;14.35;9.85;;;;;;;13.63;95.29;98557.75;5029166;28;20425;-75
2021/09/08 05:15:34;;;;;;;14.40;9.75;;;;;;;13.82;94.86;98552.19;5031115;28;20061;-80
2021/09/08 05:18:02;;;;;;;15.05;10.27;;;;;;;14.04;93.39;98551.53;5030566;28;20108;-83
2021/09/08 05:20:28;;;;;;;16.95;10.10;;;;;;;14.03;94.33;98559.00;5031367;28;20030;-82
2021/09/08 05:22:54;;;;;;;16.42;9.13;;;;;;;14.07;93.54;98559.16;5032874;28;20028;-82
2021/09/08 05:25:19;;;;;;;15.32;9.50;;;;;;;13.96;93.35;98569.56;5039589;28;20089;-79
2021/09/08 05:27:45;;;;;;;19.83;10.20;;;;;;;13.85;94.23;98565.34;5029439;28;20875;-72
2021/09/08 05:30:11;;;;;;;16.00;10.35;;;;;;;13.91;94.51;98570.44;5030772;28;20486;-72
2021/09/08 05:32:36;;;;;;;13.70;9.13;;;;;;;13.89;94.47;98572.69;5025078;28;20151;-73
2021/09/08 05:35:02;;;;;;;13.45;11.88;;;;;;;14.00;93.43;98573.34;5028536;28;20014;-72
2021/09/08 05:37:27;;;;;;;18.67;9.75;;;;;;;13.91;93.80;98575.13;5027979;28;20731;-73
2021/09/08 05:39:54;;;;;;;20.02;8.85;;;;;;;13.99;93.45;98566.22;5028167;28;20021;-73
2021/09/08 05:42:19;;;;;;;12.55;9.60;;;;;;;14.25;91.74;98574.81;5027975;28;21958;-72
2021/09/08 05:44:44;;;;;;;12.73;8.00;;;;;;;14.27;91.40;98578.91;5010332;28;20033;-73
2021/09/08 05:47:10;;;;;;;15.15;9.90;;;;;;;14.48;90.77;98573.84;5031028;28;20060;-74
2021/09/08 05:49:35;;;;;;;13.48;10.23;;;;;;;14.54;89.75;98575.38;5013170;28;20050;-73
2021/09/08 05:52:02;;;;;;;12.10;8.93;;;;;;;14.61;89.93;98577.72;5031679;28;20017;-73
2021/09/08 05:54:28;;;;;;;13.18;10.40;;;;;;;14.62;89.96;98574.66;5037668;28;20029;-86
2021/09/08 05:56:53;;;;;;;11.68;8.98;;;;;;;15.02;87.97;98568.28;5040008;28;20029;-86
2021/09/08 05:59:19;;;;;;;11.93;8.65;;;;;;;15.18;86.00;98565.19;5023111;28;20052;-87
2021/09/08 06:01:45;;;;;;;11.70;8.60;;;;;;;15.18;84.80;98559.69;5040048;28;20033;-83
2021/09/08 06:04:11;;;;;;;17.38;9.70;;;;;;;15.28;84.29;98563.03;5039656;28;20084;-85
2021/09/08 06:06:36;;;;;;;18.77;12.43;;;;;;;15.13;84.37;98562.56;5018563;28;20021;-85
2021/09/08 06:09:03;;;;;;;18.30;8.95;;;;;;;15.27;83.84;98568.84;5043087;28;20504;-84
2021/09/08 06:11:29;;;;;;;13.85;9.88;;;;;;;15.33;82.26;98560.16;5018013;28;20033;-82
2021/09/08 06:13:55;;;;;;;14.25;9.75;;;;;;;15.32;83.04;98571.47;5018223;28;20496;-82
2021/09/08 06:16:22;;;;;;;14.80;9.35;;;;;;;15.43;82.26;98556.34;5034785;28;20060;-85
2021/09/08 06:18:47;;;;;;;12.95;9.13;;;;;;;15.81;81.31;98573.38;5035189;28;20038;-82
2021/09/08 06:21:12;;;;;;;16.40;10.00;;;;;;;15.58;81.29;98564.28;5016457;28;20037;-82
2021/09/08 06:23:38;;;;;;;21.88;11.00;;;;;;;15.75;80.78;98569.94;5033384;28;20061;-84
2021/09/08 06:26:03;;;;;;;15.60;9.38;;;;;;;15.98;79.70;98576.22;5017200;28;20025;-82
2021/09/08 06:28:30;;;;;;;15.38;9.48;;;;;;;15.87;79.37;98578.44;5028775;28;20065;-84
2021/09/08 06:30:55;;;;;;;15.27;10.35;;;;;;;16.21;78.11;98588.06;5014233;28;20553;-81
2021/09/08 06:33:21;;;;;;;22.52;10.05;;;;;;;16.26;77.29;98583.22;5013606;28;20116;-84
2021/09/08 06:35:46;;;;;;;20.08;10.02;;;;;;;16.44;76.77;98570.31;5013725;28;20024;-83
2021/09/08 06:38:12;;;;;;;20.23;10.18;;;;;;;16.20;77.21;98575.38;5014538;28;20053;-83
2021/09/08 06:40:38;;;;;;;16.85;9.77;;;;;;;16.37;76.75;98569.97;5014331;28;20391;-82
2021/09/08 06:43:03;;;;;;;14.57;10.38;;;;;;;16.79;74.95;98583.13;5020285;28;20060;-83
2021/09/08 06:45:28;;;;;;;16.80;9.45;;;;;;;16.59;75.28;98584.56;5034469;28;20063;-84
2021/09/08 06:47:54;;;;;;;17.35;9.88;;;;;;;16.51;75.98;98576.19;5035151;28;20402;-84
2021/09/08 06:50:22;;;;;;;20.42;10.68;;;;;;;16.64;74.72;98585.53;5035130;28;20037;-86
2021/09/08 06:52:49;;;;;;;18.05;10.73;;;;;;;16.56;75.33;98576.91;5033159;28;20033;-82
2021/09/08 06:55:14;;;;;;;13.02;9.07;;;;;;;16.65;74.86;98587.97;5032613;28;20025;-83
2021/09/08 06:57:40;;;;;;;18.85;8.65;;;;;;;16.74;72.84;98582.47;5031633;28;20114;-82
2021/09/08 07:00:06;;;;;;;16.05;9.48;;;;;;;17.07;72.45;98584.50;5033167;28;20025;-82
2021/09/08 07:02:31;;;;;;;13.98;9.07;;;;;;;17.09;71.99;98589.75;5031730;28;20103;-84
2021/09/08 07:04:57;;;;;;;20.23;8.75;;;;;;;18.17;67.47;98584.88;5034100;28;20037;-83
2021/09/08 07:07:22;;;;;;;13.55;9.32;;;;;;;18.21;66.89;98585.03;5034039;28;20024;-82
2021/09/08 07:09:48;;;;;;;14.63;8.57;;;;;;;18.00;68.44;98575.78;5035762;28;20033;-82
2021/09/08 07:12:13;;;;;;;13.25;9.35;;;;;;;18.09;67.50;98594.03;5034977;28;20026;-84
2021/09/08 07:14:39;;;;;;;15.77;7.95;;;;;;;18.47;65.54;98598.81;5035167;28;20441;-85
2021/09/08 07:17:04;;;;;;;19.10;8.32;;;;;;;18.40;65.93;98593.78;5036374;28;20033;-84
2021/09/08 07:19:30;;;;;;;13.57;7.35;;;;;;;18.78;64.37;98595.78;5035672;28;20116;-83
2021/09/08 07:21:55;;;;;;;12.65;8.57;;;;;;;18.47;65.19;98593.25;5032372;28;20025;-83
2021/09/08 07:24:21;;;;;;;12.90;8.35;;;;;;;18.39;64.33;98602.41;5032496;28;20026;-82
2021/09/08 07:26:47;;;;;;;14.13;8.65;;;;;;;18.35;64.85;98596.72;5031320;28;20079;-81
2021/09/08 07:29:13;;;;;;;18.55;8.65;;;;;;;18.61;64.11;98596.66;5031283;28;20548;-85
2021/09/08 07:31:39;;;;;;;16.02;7.78;;;;;;;18.83;63.08;98598.34;5033014;28;20445;-82
2021/09/08 07:34:04;;;;;;;10.32;7.00;;;;;;;19.15;62.75;98592.97;5032950;28;20079;-82
2021/09/08 07:36:30;;;;;;;15.38;7.68;;;;;;;19.13;62.33;98589.72;5033606;28;20100;-83
2021/09/08 07:38:55;;;;;;;12.32;7.32;;;;;;;19.81;60.47;98593.16;5040858;28;20033;-85
2021/09/08 07:41:21;;;;;;;9.27;7.40;;;;;;;20.29;58.25;98596.16;5042294;28;20038;-83
2021/09/08 07:43:47;;;;;;;16.52;8.35;;;;;;;20.74;56.56;98603.66;5034398;28;20053;-83
2021/09/08 07:46:15;;;;;;;10.27;7.63;;;;;;;21.60;54.49;98605.25;5033201;28;20021;-81
2021/09/08 07:48:41;;;;;;;11.05;7.85;;;;;;;22.40;52.94;98604.03;5031757;28;20501;-80
2021/09/08 07:51:07;;;;;;;15.20;8.48;;;;;;;22.14;52.35;98602.91;5032007;28;20060;-81
2021/09/08 07:53:33;;;;;;;9.65;6.53;;;;;;;23.03;49.58;98617.25;5046485;28;20009;-80
2021/09/08 07:55:59;;;;;;;9.40;6.55;;;;;;;23.27;48.29;98598.31;5052823;28;20029;-80
2021/09/08 07:58:24;;;;;;;10.13;6.80;;;;;;;24.32;46.44;98615.81;5052644;28;20025;-80
2021/09/08 08:00:50;;;;;;;15.60;7.40;;;;;;;23.92;46.33;98612.56;5049291;28;20064;-80
2021/09/08 08:03:15;;;;;;;19.15;7.57;;;;;;;24.16;46.36;98606.72;5046632;28;20022;-79
2021/09/08 08:05:41;;;;;;;16.58;7.80;;;;;;;23.92;46.49;98607.78;5036484;28;20030;-79
2021/09/08 08:08:06;;;;;;;13.95;7.30;;;;;;;24.03;45.14;98612.81;5033999;28;20038;-80
2021/09/08 08:10:32;;;;;;;8.20;6.43;;;;;;;24.74;44.22;98618.63;5033933;28;20046;-79
2021/09/08 08:12:58;;;;;;;8.80;6.97;;;;;;;25.35;41.43;98618.47;5032432;28;20083;-79
2021/09/08 08:15:24;;;;;;;9.88;5.95;;;;;;;25.61;41.81;98619.69;5031149;28;20018;-79
2021/09/08 08:17:50;;;;;;;8.98;6.60;;;;;;;25.32;41.74;98618.41;5031621;28;20112;-79
2021/09/08 08:20:17;;;;;;;15.45;7.70;;;;;;;25.46;42.23;98625.06;5030323;28;20214;-79
2021/09/08 08:22:43;;;;;;;10.38;6.63;;;;;;;24.95;43.00;98612.63;5031075;28;20051;-79
2021/09/08 08:25:12;;;;;;;11.23;6.25;;;;;;;25.94;41.84;98614.94;5031339;28;20027;-79
2021/09/08 08:27:38;;;;;;;15.73;6.60;;;;;;;25.97;40.57;98616.19;5030195;28;20029;-79
2021/09/08 08:30:06;;;;;;;10.55;6.85;;;;;;;26.08;40.18;98619.94;5031497;28;20021;-80
2021/09/08 08:32:32;;;;;;;9.75;6.60;;;;;;;26.29;40.17;98622.22;5032290;28;20270;-79
2021/09/08 08:34:57;;;;;;;9.98;5.70;;;;;;;27.70;37.39;98628.38;5031783;28;20087;-80
2021/09/08 08:37:23;;;;;;;7.50;5.55;;;;;;;25.83;40.45;98613.19;5030921;28;20029;-80
2021/09/08 08:39:49;;;;;;;8.65;5.55;;;;;;;26.85;37.81;98622.06;5030511;28;20026;-79
2021/09/08 08:42:21;;;;;;;7.43;5.38;;;;;;;28.77;34.81;98622.03;5031285;28;20049;-78
2021/09/08 08:44:51;;;;;;;10.65;6.15;;;;;;;28.78;34.19;98615.22;5030411;28;20021;-80
2021/09/08 08:47:18;;;;;;;9.95;6.50;;;;;;;27.02;37.70;98618.63;5030291;28;20025;-79
2021/09/08 08:49:44;;;;;;;10.75;5.60;;;;;;;28.63;34.29;98615.13;5031360;28;20029;-79
2021/09/08 08:52:11;;;;;;;12.07;5.88;;;;;;;27.59;35.81;98612.28;5029960;28;20014;-80
2021/09/08 08:54:36;;;;;;;13.63;6.00;;;;;;;26.24;37.82;98600.94;5031162;28;20571;-80
2021/09/08 08:57:02;;;;;;;8.85;5.30;;;;;;;27.55;36.43;98611.44;5037913;28;20171;-79
2021/09/08 08:59:28;;;;;;;13.35;6.13;;;;;;;26.66;38.54;98608.22;5033594;28;20104;-79
2021/09/08 09:01:53;;;;;;;9.63;5.28;;;;;;;27.99;36.02;98611.28;5031944;28;20018;-81
2021/09/08 09:04:19;;;;;;;9.18;4.53;;;;;;;30.28;30.64;98618.28;5031411;28;20470;-78
2021/09/08 09:06:52;;;;;;;6.43;4.45;;;;;;;28.54;33.08;98605.47;5030216;28;20470;-80
2021/09/08 09:09:33;;;;;;;11.75;5.35;;;;;;;29.94;30.86;98603.91;5032503;28;20060;-80
2021/09/08 09:11:59;;;;;;;6.35;4.18;;;;;;;28.47;32.52;98605.47;5030090;28;20091;-80
2021/09/08 09:14:24;;;;;;;6.65;4.00;;;;;;;27.40;33.66;98592.84;5029613;28;20108;-79
2021/09/08 09:16:49;;;;;;;7.65;4.63;;;;;;;30.00;29.86;98595.81;5034426;28;20172;-79
2021/09/08 09:19:15;;;;;;;5.32;4.07;;;;;;;29.28;30.92;98585.88;5034745;28;20040;-79
2021/09/08 09:21:41;;;;;;;7.78;5.20;;;;;;;29.01;31.76;98587.44;5034940;28;20126;-79
2021/09/08 09:24:08;;;;;;;11.60;4.30;;;;;;;29.31;31.26;98587.88;5035906;28;20560;-79
2021/09/08 09:26:36;;;;;;;10.90;3.67;;;;;;;28.59;32.16;98585.38;5033317;28;20143;-80
2021/09/08 09:29:10;;;;;;;8.05;4.18;;;;;;;29.98;29.39;98584.16;5034930;28;20057;-78
2021/09/08 09:32:01;;;;;;;8.05;4.00;;;;;;;28.22;31.45;98582.88;5035384;28;20048;-79
2021/09/08 09:34:33;;;;;;;9.90;5.15;;;;;;;27.93;32.75;98572.66;5035611;28;20030;-81
2021/09/08 09:37:00;;;;;;;7.97;4.65;;;;;;;29.82;30.19;98580.94;5033409;28;20041;-78
2021/09/08 09:39:31;;;;;;;6.15;4.50;;;;;;;29.85;30.24;98580.97;5035246;28;20529;-78
2021/09/08 09:42:06;;;;;;;5.78;4.38;;;;;;;29.28;30.74;98566.16;5034886;28;20045;-79
2021/09/08 09:44:32;;;;;;;;;;;;;;;30.23;30.00;98573.53;5035248;28;20042;-80
2021/09/08 09:47:00;;;;;;;6.93;4.28;;;;;;;29.05;30.96;98562.91;5036525;28;19901;-80
2021/09/08 09:49:25;;;;;;;6.78;4.25;;;;;;;28.20;31.95;98562.75;5035142;28;20498;-79
2021/09/08 09:51:57;;;;;;;5.15;4.20;;;;;;;29.22;29.81;98560.09;5035154;28;20035;-80
2021/09/08 09:54:23;;;;;;;10.30;3.85;;;;;;;29.72;29.18;98560.81;5038202;28;20017;-80
2021/09/08 09:56:49;;;;;;;7.68;4.15;;;;;;;28.87;30.45;98551.63;5037484;28;20030;-79
2021/09/08 09:59:16;;;;;;;4.88;3.83;;;;;;;27.94;31.32;98549.75;5028579;28;20030;-79
2021/09/08 10:01:42;;;;;;;8.82;4.15;;;;;;;28.46;30.39;98539.91;5017518;28;20022;-79
2021/09/08 10:04:09;;;;;;;7.10;4.20;;;;;;;28.43;29.40;98537.06;5014344;28;20029;-77
2021/09/08 10:06:36;;;;;;;9.35;4.10;;;;;;;27.38;31.40;98538.22;5003277;28;20032;-79
2021/09/08 10:09:04;;;;;;;5.75;3.78;;;;;;;28.05;30.43;98532.94;4994849;28;20105;-80
2021/09/08 10:11:33;;;;;;;5.38;4.00;;;;;;;27.49;31.29;98525.84;4994692;28;20538;-79
2021/09/08 10:14:10;;;;;;;5.63;4.60;;;;;;;29.38;27.78;98537.13;4995172;28;20094;-79
2021/09/08 10:16:36;;;;;;;7.45;4.07;;;;;;;30.08;27.23;98529.66;4976615;28;20546;-80
2021/09/08 10:19:06;;;;;;;5.47;3.28;;;;;;;30.73;24.65;98529.66;4994487;28;20031;-81
2021/09/08 10:21:32;;;;;;;6.40;3.45;;;;;;;28.91;26.09;98531.91;4994140;28;20510;-81
2021/09/08 10:24:00;;;;;;;6.03;2.63;;;;;;;27.95;27.58;98519.63;4993165;28;20038;-80
2021/09/08 10:26:28;;;;;;;11.15;3.03;;;;;;;27.86;27.85;98516.38;4993043;28;20487;-81
2021/09/08 10:28:54;;;;;;;7.82;3.35;;;;;;;27.46;27.98;98506.97;4993304;28;20442;-79
2021/09/08 10:31:20;;;;;;;3.63;3.05;;;;;;;27.76;28.25;98511.50;4993345;28;20706;-80
2021/09/08 10:33:46;;;;;;;3.83;2.95;;;;;;;28.25;27.18;98508.91;5009165;28;20028;-80
2021/09/08 10:36:13;;;;;;;8.70;3.80;;;;;;;29.00;26.17;98515.41;5012883;28;20112;-81
2021/09/08 10:38:40;;;;;;;4.75;2.72;;;;;;;28.49;27.16;98507.31;5013034;28;20414;-81
2021/09/08 10:41:09;;;;;;;5.32;4.00;;;;;;;27.30;28.50;98514.88;4995685;28;20022;-82
2021/09/08 10:43:38;;;;;;;8.10;3.28;;;;;;;27.72;27.79;98491.81;5029074;28;20102;-82
2021/09/08 10:46:05;;;;;;;5.75;3.58;;;;;;;27.51;28.25;98500.16;5035139;28;20465;-81
2021/09/08 10:48:36;;;;;;;7.63;3.28;;;;;;;27.67;27.98;98497.81;5034486;28;20076;-81
2021/09/08 10:51:03;;;;;;;5.18;2.80;;;;;;;28.52;26.89;98484.78;5033065;28;20032;-80
2021/09/08 10:53:30;;;;;;;4.03;3.53;;;;;;;28.12;27.34;98487.97;5033019;28;20017;-82
2021/09/08 10:55:59;;;;;;;4.60;2.60;;;;;;;27.90;27.51;98494.69;5032649;28;20033;-80
2021/09/08 10:58:58;;;;;;;5.80;3.17;;;;;;;26.15;30.24;98479.78;5032236;28;20022;-80
2021/09/08 11:01:24;;;;;;;7.35;4.18;;;;;;;25.37;31.11;98481.63;5033330;28;20026;-82
2021/09/08 11:03:51;;;;;;;10.23;3.60;;;;;;;25.45;31.14;98476.91;5034988;28;20104;-81
2021/09/08 11:06:30;;;;;;;5.53;3.20;;;;;;;25.19;31.88;98472.16;5033195;28;20395;-80
2021/09/08 11:09:01;;;;;;;4.28;3.78;;;;;;;25.04;32.37;98476.78;5032095;28;20039;-80
2021/09/08 11:11:27;;;;;;;5.35;3.78;;;;;;;24.65;32.77;98466.13;5031192;28;20101;-81
2021/09/08 11:13:55;;;;;;;4.38;3.38;;;;;;;24.64;33.29;98464.50;5032018;28;20476;-79
2021/09/08 11:16:28;;;;;;;6.20;2.95;;;;;;;24.69;33.24;98466.97;5031862;28;20490;-81
2021/09/08 11:18:56;;;;;;;4.57;3.60;;;;;;;24.65;32.95;98464.16;5032046;28;20427;-81
2021/09/08 11:21:28;;;;;;;7.68;3.00;;;;;;;24.68;32.74;98466.19;5032174;28;20033;-81
2021/09/08 11:24:04;;;;;;;6.55;3.28;;;;;;;24.99;33.09;98465.09;5032115;28;20389;-82